createdAt,value
2019-05-03T00:01:34.859Z,12.60
2019-05-03T00:04:05.002Z,12.60
2019-05-03T00:06:35.109Z,12.70
2019-05-03T00:09:08.014Z,12.60
2019-05-03T00:11:38.358Z,12.60
2019-05-03T00:14:08.459Z,12.60
2019-05-03T00:16:41.661Z,12.50
2019-05-03T00:19:12.737Z,12.50
2019-05-03T00:21:42.950Z,12.50
2019-05-03T00:24:12.999Z,12.50
2019-05-03T00:26:43.088Z,12.50
2019-05-03T00:29:13.136Z,12.40
2019-05-03T00:31:43.192Z,12.40
2019-05-03T00:34:16.657Z,12.50
2019-05-03T00:36:54.007Z,12.40
2019-05-03T00:39:32.499Z,12.50
2019-05-03T00:42:02.864Z,12.50
2019-05-03T00:44:32.965Z,12.40
2019-05-03T00:47:03.079Z,12.40
2019-05-03T00:49:33.091Z,12.40
2019-05-03T00:52:03.142Z,12.40
2019-05-03T00:54:33.164Z,12.40
2019-05-03T00:57:04.558Z,12.30
2019-05-03T00:59:34.591Z,12.40
2019-05-03T01:02:04.782Z,12.30
2019-05-03T01:04:34.874Z,12.30
2019-05-03T01:07:04.902Z,12.30
2019-05-03T01:09:35.399Z,12.20
2019-05-03T01:12:06.485Z,12.20
2019-05-03T01:14:38.559Z,12.20
2019-05-03T01:17:08.595Z,12.10
2019-05-03T01:19:38.609Z,12.10
2019-05-03T01:22:09.011Z,12.10
2019-05-03T01:24:39.112Z,12.10
2019-05-03T01:27:09.147Z,12.00
2019-05-03T01:29:39.150Z,12.10
2019-05-03T01:32:09.190Z,12.00
2019-05-03T01:34:39.251Z,12.10
2019-05-03T01:37:09.336Z,12.00
2019-05-03T01:39:39.479Z,12.00
2019-05-03T01:42:12.019Z,12.00
2019-05-03T01:44:42.721Z,12.00
2019-05-03T01:49:55.751Z,11.90
2019-05-03T01:52:29.900Z,11.90
2019-05-03T01:54:59.945Z,12.00
2019-05-03T01:57:30.035Z,12.00
2019-05-03T02:00:00.182Z,12.00
2019-05-03T02:02:36.658Z,12.00
2019-05-03T02:05:38.586Z,12.00
2019-05-03T02:08:09.776Z,11.90
2019-05-03T02:10:39.980Z,11.80
2019-05-03T02:13:12.285Z,11.70
2019-05-03T02:15:42.615Z,11.70
2019-05-03T02:18:14.947Z,11.60
2019-05-03T02:20:44.375Z,11.50
2019-05-03T02:23:14.510Z,11.40
2019-05-03T02:25:55.610Z,11.30
2019-05-03T02:28:16.259Z,11.20
2019-05-03T02:30:46.315Z,11.20
2019-05-03T02:33:16.424Z,11.20
2019-05-03T02:35:46.456Z,11.10
2019-05-03T02:38:17.841Z,11.20
2019-05-03T02:40:47.895Z,11.10
2019-05-03T02:43:31.862Z,11.10
2019-05-03T02:46:29.847Z,11.10
2019-05-03T02:49:27.983Z,11.00
2019-05-03T02:51:58.125Z,10.90
2019-05-03T02:54:28.203Z,10.90
2019-05-03T02:56:58.223Z,10.80
2019-05-03T02:59:29.393Z,10.80
2019-05-03T03:01:59.664Z,10.80
2019-05-03T03:04:30.343Z,10.80
2019-05-03T03:07:01.067Z,10.70
2019-05-03T03:09:31.504Z,10.60
2019-05-03T03:12:06.189Z,10.60
2019-05-03T03:14:36.724Z,10.60
2019-05-03T03:17:08.646Z,10.50
2019-05-03T03:19:41.963Z,10.40
2019-05-03T03:22:15.891Z,10.30
2019-05-03T03:24:49.171Z,10.20
2019-05-03T03:27:22.296Z,10.30
2019-05-03T03:29:59.115Z,10.20
2019-05-03T03:32:38.285Z,10.10
2019-05-03T03:35:20.450Z,10.00
2019-05-03T03:37:46.721Z,10.00
2019-05-03T03:40:18.026Z,9.90
2019-05-03T03:42:50.838Z,9.80
2019-05-03T03:45:21.906Z,9.70
2019-05-03T03:47:56.484Z,9.60
2019-05-03T03:50:28.100Z,9.60
2019-05-03T03:53:00.716Z,9.50
2019-05-03T03:55:35.414Z,9.50
2019-05-03T03:58:06.500Z,9.50
2019-05-03T04:00:36.793Z,9.40
2019-05-03T04:03:06.801Z,9.30
2019-05-03T04:05:36.907Z,9.20
2019-05-03T04:08:06.936Z,9.30
2019-05-03T04:10:37.011Z,9.40
2019-05-03T04:13:09.063Z,9.30
2019-05-03T04:16:01.343Z,9.30
2019-05-03T04:18:57.299Z,9.40
2019-05-03T04:21:27.958Z,9.40
2019-05-03T04:23:58.062Z,9.40
2019-05-03T04:26:29.933Z,9.30
2019-05-03T04:29:00.346Z,9.30
2019-05-03T04:31:30.450Z,9.30
2019-05-03T04:34:00.454Z,9.30
2019-05-03T04:36:30.485Z,9.40
2019-05-03T04:39:00.488Z,9.40
2019-05-03T04:41:30.723Z,9.50
2019-05-03T04:44:00.755Z,9.50
2019-05-03T04:46:30.808Z,9.50
2019-05-03T04:49:00.811Z,9.70
2019-05-03T04:51:30.909Z,9.80
2019-05-03T04:54:18.587Z,9.90
2019-05-03T04:56:48.660Z,10.00
2019-05-03T04:59:18.674Z,10.10
2019-05-03T05:01:50.624Z,10.20
2019-05-03T05:04:20.695Z,10.40
2019-05-03T05:06:50.886Z,10.50
2019-05-03T05:09:20.899Z,10.60
2019-05-03T05:11:51.020Z,10.80
2019-05-03T05:14:21.151Z,10.80
2019-05-03T05:16:51.216Z,10.80
2019-05-03T05:19:27.083Z,10.90
2019-05-03T05:22:03.257Z,11.00
2019-05-03T05:24:34.634Z,11.00
2019-05-03T05:27:26.907Z,11.10
2019-05-03T05:29:57.836Z,11.20
2019-05-03T05:32:27.966Z,11.30
2019-05-03T05:34:58.015Z,11.30
2019-05-03T05:37:28.153Z,11.30
2019-05-03T05:39:58.274Z,11.30
2019-05-03T05:42:28.600Z,11.40
2019-05-03T05:44:58.627Z,11.50
2019-05-03T05:47:44.844Z,11.70
2019-05-03T05:50:22.896Z,11.70
2019-05-03T05:52:55.202Z,11.70
2019-05-03T05:55:44.799Z,11.90
2019-05-03T05:58:39.743Z,12.00
2019-05-03T06:01:40.832Z,12.10
2019-05-03T06:04:10.960Z,12.00
2019-05-03T06:06:52.306Z,12.10
2019-05-03T06:09:34.460Z,12.10
2019-05-03T06:12:22.211Z,12.30
2019-05-03T06:14:56.351Z,12.50
2019-05-03T06:17:31.259Z,12.50
2019-05-03T06:20:12.865Z,12.60
2019-05-03T06:22:55.694Z,12.90
2019-05-03T06:25:35.356Z,13.40
2019-05-03T06:28:18.385Z,13.40
2019-05-03T06:31:21.147Z,13.30
2019-05-03T06:33:52.483Z,13.50
2019-05-03T06:36:24.369Z,13.70
2019-05-03T06:38:54.819Z,13.90
2019-05-03T06:41:25.179Z,14.00
2019-05-03T06:43:55.357Z,13.80
2019-05-03T06:46:45.513Z,13.80
2019-05-03T06:49:15.677Z,13.30
2019-05-03T06:51:49.760Z,13.10
2019-05-03T06:54:20.516Z,13.00
2019-05-03T06:56:49.271Z,13.20
2019-05-03T06:59:28.063Z,13.50
2019-05-03T07:02:28.571Z,13.50
2019-05-03T07:04:58.787Z,13.40
2019-05-03T07:07:47.847Z,13.40
2019-05-03T07:10:24.933Z,13.10
2019-05-03T07:12:57.884Z,13.10
2019-05-03T07:15:28.527Z,13.20
2019-05-03T07:17:59.073Z,13.20
2019-05-03T07:20:30.776Z,13.40
2019-05-03T07:23:00.784Z,13.60
2019-05-03T07:25:30.798Z,13.60
2019-05-03T07:28:00.834Z,13.40
2019-05-03T07:30:31.039Z,13.30
2019-05-03T07:33:05.003Z,13.20
2019-05-03T07:35:35.387Z,13.10
2019-05-03T07:38:05.553Z,13.20
2019-05-03T07:40:35.727Z,13.10
2019-05-03T07:43:05.750Z,13.10
2019-05-03T07:45:35.881Z,13.30
2019-05-03T07:48:06.408Z,13.30
2019-05-03T07:50:36.639Z,13.10
2019-05-03T07:53:06.689Z,13.00
2019-05-03T07:55:54.830Z,13.00
2019-05-03T07:58:26.348Z,12.80
2019-05-03T08:01:06.123Z,12.60
2019-05-03T08:03:30.306Z,12.80
2019-05-03T08:06:00.416Z,12.80
2019-05-03T08:08:30.506Z,12.70
2019-05-03T08:11:00.983Z,12.60
2019-05-03T08:13:31.216Z,12.60
2019-05-03T08:16:01.508Z,12.70
2019-05-03T08:18:31.559Z,12.90
2019-05-03T08:21:01.606Z,13.50
2019-05-03T08:23:31.742Z,14.60
2019-05-03T08:26:01.984Z,16.80
2019-05-03T08:28:32.098Z,19.00
2019-05-03T08:31:32.175Z,21.30
2019-05-03T08:34:19.889Z,22.50
2019-05-03T08:37:02.175Z,23.30
2019-05-03T08:39:32.269Z,22.80
2019-05-03T08:42:05.960Z,22.80
2019-05-03T08:44:36.334Z,23.30
2019-05-03T08:47:06.447Z,22.70
2019-05-03T08:49:36.607Z,22.30
2019-05-03T08:52:06.722Z,22.90
2019-05-03T08:54:36.831Z,22.40
2019-05-03T08:57:07.026Z,20.60
2019-05-03T08:59:37.097Z,18.80
2019-05-03T09:02:13.906Z,17.50
2019-05-03T09:04:42.887Z,16.50
2019-05-03T09:07:10.956Z,15.90
2019-05-03T09:10:06.239Z,15.60
2019-05-03T09:12:55.528Z,15.10
2019-05-03T09:15:26.795Z,15.20
2019-05-03T09:17:57.178Z,15.40
2019-05-03T09:20:27.454Z,15.40
2019-05-03T09:22:57.626Z,15.50
2019-05-03T09:25:27.745Z,15.90
2019-05-03T09:27:57.820Z,16.50
2019-05-03T09:30:28.056Z,17.50
2019-05-03T09:32:59.027Z,18.40
2019-05-03T09:35:33.080Z,17.80
2019-05-03T09:38:01.029Z,17.80
2019-05-03T09:40:31.267Z,17.70
2019-05-03T09:43:01.345Z,17.70
2019-05-03T09:45:31.541Z,17.40
2019-05-03T09:48:01.874Z,17.10
2019-05-03T09:50:31.973Z,17.60
2019-05-03T09:53:02.035Z,18.80
2019-05-03T09:55:36.364Z,18.70
2019-05-03T09:58:07.542Z,18.10
2019-05-03T10:00:38.127Z,17.90
2019-05-03T10:03:08.188Z,18.20
2019-05-03T10:05:38.249Z,18.60
2019-05-03T10:08:08.286Z,19.50
2019-05-03T10:10:57.366Z,20.70
2019-05-03T10:13:27.621Z,20.40
2019-05-03T10:15:57.828Z,19.60
2019-05-03T10:18:27.892Z,19.10
2019-05-03T10:20:58.006Z,18.40
2019-05-03T10:23:47.117Z,17.80
2019-05-03T10:26:17.194Z,17.00
2019-05-03T10:28:47.305Z,16.40
2019-05-03T10:31:17.404Z,15.50
2019-05-03T10:34:00.909Z,15.60
2019-05-03T10:36:30.995Z,16.20
2019-05-03T10:39:01.092Z,16.70
2019-05-03T10:41:34.792Z,16.60
2019-05-03T10:44:06.011Z,16.40
2019-05-03T10:46:36.194Z,16.00
2019-05-03T10:49:08.131Z,15.80
2019-05-03T10:51:45.090Z,15.70
2019-05-03T10:54:14.785Z,15.30
2019-05-03T10:57:02.365Z,15.40
2019-05-03T10:59:32.415Z,15.50
2019-05-03T11:02:11.475Z,15.60
2019-05-03T11:04:43.691Z,15.70
2019-05-03T11:07:14.891Z,15.80
2019-05-03T11:09:49.729Z,15.90
2019-05-03T11:12:17.746Z,15.60
2019-05-03T11:14:47.790Z,15.30
2019-05-03T11:17:18.008Z,15.40
2019-05-03T11:19:48.496Z,15.80
2019-05-03T11:22:18.975Z,16.10
2019-05-03T11:24:49.010Z,16.20
2019-05-03T11:27:24.814Z,16.30
2019-05-03T11:29:55.588Z,16.60
2019-05-03T11:32:55.631Z,16.80
2019-05-03T11:35:50.103Z,16.80
2019-05-03T11:38:31.295Z,16.80
2019-05-03T11:41:01.443Z,16.40
2019-05-03T11:43:31.648Z,16.70
2019-05-03T11:46:01.780Z,16.70
2019-05-03T11:48:31.900Z,16.40
2019-05-03T11:51:02.081Z,16.20
2019-05-03T11:53:32.124Z,16.30
2019-05-03T11:56:02.183Z,16.40
2019-05-03T11:58:34.251Z,16.60
2019-05-03T12:01:17.039Z,16.80
2019-05-03T12:03:49.051Z,17.30
2019-05-03T12:06:19.219Z,17.40
2019-05-03T12:08:49.249Z,17.10
2019-05-03T12:11:19.428Z,16.60
2019-05-03T12:14:01.671Z,16.40
2019-05-03T12:16:48.456Z,16.90
2019-05-03T12:18:55.183Z,17.40
2019-05-03T12:21:27.446Z,17.40
2019-05-03T12:23:58.658Z,17.40
2019-05-03T12:26:40.757Z,17.20
2019-05-03T12:29:00.819Z,17.30
2019-05-03T12:31:37.960Z,17.30
2019-05-03T12:34:02.786Z,16.50
2019-05-03T12:36:36.728Z,16.00
2019-05-03T12:39:05.682Z,15.70
2019-05-03T12:41:36.082Z,15.60
2019-05-03T12:44:06.197Z,15.40
2019-05-03T12:46:36.494Z,15.40
2019-05-03T12:49:06.518Z,15.50
2019-05-03T12:51:36.597Z,15.70
2019-05-03T12:54:07.887Z,16.00
2019-05-03T12:56:37.942Z,16.20
2019-05-03T12:59:18.695Z,16.60
2019-05-03T13:02:20.012Z,16.80
2019-05-03T13:04:52.059Z,17.00
2019-05-03T13:07:27.691Z,16.70
2019-05-03T13:09:57.700Z,16.40
2019-05-03T13:12:29.499Z,15.90
2019-05-03T13:15:00.570Z,15.50
2019-05-03T13:17:37.090Z,15.60
2019-05-03T13:20:11.610Z,16.00
2019-05-03T13:22:41.639Z,16.10
2019-05-03T13:25:12.128Z,16.30
2019-05-03T13:27:42.247Z,16.80
2019-05-03T13:30:12.743Z,17.00
2019-05-03T13:32:42.771Z,17.00
2019-05-03T13:35:15.076Z,16.80
2019-05-03T13:37:46.631Z,16.70
2019-05-03T13:40:16.739Z,16.60
2019-05-03T13:42:56.199Z,16.50
2019-05-03T13:45:18.630Z,16.20
2019-05-03T13:47:48.704Z,15.90
2019-05-03T13:50:20.279Z,16.10
2019-05-03T13:52:50.683Z,16.10
2019-05-03T13:55:20.743Z,16.20
2019-05-03T13:57:50.886Z,16.30
2019-05-03T14:00:21.120Z,16.10
2019-05-03T14:02:52.361Z,16.60
2019-05-03T14:05:24.450Z,17.00
2019-05-03T14:07:56.189Z,17.20
2019-05-03T14:10:25.837Z,16.70
2019-05-03T14:12:55.876Z,16.60
2019-05-03T14:15:25.884Z,16.60
2019-05-03T14:17:55.999Z,16.80
2019-05-03T14:20:45.232Z,16.90
2019-05-03T14:23:15.500Z,17.00
2019-05-03T14:25:45.598Z,17.00
2019-05-03T14:28:15.663Z,17.20
2019-05-03T14:30:45.923Z,17.00
2019-05-03T14:33:15.951Z,16.80
2019-05-03T14:35:45.977Z,16.60
2019-05-03T14:38:16.010Z,16.50
2019-05-03T14:40:47.369Z,16.40
2019-05-03T14:43:17.632Z,16.40
2019-05-03T14:45:47.642Z,16.30
2019-05-03T14:48:18.807Z,16.00
2019-05-03T14:50:48.855Z,15.70
2019-05-03T14:53:18.899Z,15.80
2019-05-03T14:55:53.830Z,16.00
2019-05-03T14:58:41.483Z,16.20
2019-05-03T15:01:24.717Z,16.20
2019-05-03T15:03:54.976Z,16.10
2019-05-03T15:06:28.181Z,16.10
2019-05-03T15:08:59.321Z,16.20
2019-05-03T15:11:29.400Z,16.20
2019-05-03T15:13:59.535Z,16.40
2019-05-03T15:16:29.651Z,16.60
2019-05-03T15:18:59.659Z,16.70
2019-05-03T15:21:29.691Z,16.40
2019-05-03T15:23:59.759Z,16.60
2019-05-03T15:26:29.791Z,16.50
2019-05-03T15:28:59.823Z,16.30
2019-05-03T15:31:29.847Z,15.90
2019-05-03T15:33:59.863Z,16.10
2019-05-03T15:36:29.920Z,16.30
2019-05-03T15:39:00.003Z,16.60
2019-05-03T15:41:31.771Z,16.80
2019-05-03T15:44:18.792Z,16.70
2019-05-03T15:46:56.710Z,16.70
2019-05-03T15:49:27.698Z,16.70
2019-05-03T15:51:58.014Z,16.80
2019-05-03T15:54:28.139Z,16.50
2019-05-03T15:56:58.230Z,16.10
2019-05-03T15:59:28.227Z,15.90
2019-05-03T16:01:58.422Z,16.20
2019-05-03T16:04:28.431Z,16.40
2019-05-03T16:06:58.575Z,16.40
2019-05-03T16:09:28.651Z,16.50
2019-05-03T16:11:58.747Z,16.50
2019-05-03T16:14:29.111Z,16.40
2019-05-03T16:16:59.214Z,16.10
2019-05-03T16:19:29.222Z,15.90
2019-05-03T16:21:59.311Z,15.90
2019-05-03T16:24:29.431Z,15.90
2019-05-03T16:27:24.859Z,15.90
2019-05-03T16:29:55.511Z,15.90
2019-05-03T16:32:26.647Z,15.80
2019-05-03T16:34:57.561Z,15.70
2019-05-03T16:37:28.426Z,15.50
2019-05-03T16:39:58.514Z,15.30
2019-05-03T16:42:28.561Z,15.20
2019-05-03T16:44:58.938Z,15.10
2019-05-03T16:47:29.417Z,15.10
2019-05-03T16:49:59.636Z,15.00
2019-05-03T16:52:30.755Z,15.00
2019-05-03T16:55:00.851Z,15.10
2019-05-03T16:57:31.582Z,15.30
2019-05-03T17:00:01.824Z,15.50
2019-05-03T17:02:32.479Z,15.60
2019-05-03T17:05:10.016Z,15.60
2019-05-03T17:08:11.066Z,15.60
2019-05-03T17:10:45.427Z,15.30
2019-05-03T17:13:15.697Z,15.10
2019-05-03T17:15:45.738Z,15.00
2019-05-03T17:18:17.282Z,15.30
2019-05-03T17:20:47.486Z,15.30
2019-05-03T17:23:17.568Z,15.30
2019-05-03T17:25:47.574Z,15.10
2019-05-03T17:28:17.619Z,15.00
2019-05-03T17:30:47.730Z,14.80
2019-05-03T17:33:17.748Z,14.80
2019-05-03T17:35:47.823Z,14.70
2019-05-03T17:38:17.900Z,14.40
2019-05-03T17:40:59.864Z,14.30
2019-05-03T17:43:34.665Z,14.20
2019-05-03T17:46:06.639Z,14.10
2019-05-03T17:48:36.758Z,14.10
2019-05-03T17:51:06.847Z,14.00
2019-05-03T17:53:56.040Z,13.90
2019-05-03T17:56:30.914Z,13.80
2019-05-03T17:59:04.613Z,13.80
2019-05-03T18:01:55.383Z,13.80
2019-05-03T18:04:46.212Z,13.70
2019-05-03T18:07:45.341Z,13.70
2019-05-03T18:10:15.916Z,13.70
2019-05-03T18:12:46.055Z,13.60
2019-05-03T18:15:16.210Z,13.50
2019-05-03T18:17:46.264Z,13.40
2019-05-03T18:20:16.380Z,13.30
2019-05-03T18:22:46.552Z,13.30
2019-05-03T18:25:16.587Z,13.20
2019-05-03T18:27:47.110Z,13.10
2019-05-03T18:30:17.308Z,13.10
2019-05-03T18:32:47.691Z,13.10
2019-05-03T18:35:17.923Z,13.10
2019-05-03T18:37:58.069Z,13.00
2019-05-03T18:40:29.876Z,13.00
2019-05-03T18:43:08.058Z,13.00
2019-05-03T18:46:06.250Z,12.90
2019-05-03T18:48:36.343Z,12.90
2019-05-03T18:51:06.390Z,12.80
2019-05-03T18:53:36.503Z,12.80
2019-05-03T18:56:06.525Z,12.70
2019-05-03T18:58:36.535Z,12.60
2019-05-03T19:01:06.874Z,12.60
2019-05-03T19:03:37.001Z,12.50
2019-05-03T19:06:08.434Z,12.40
2019-05-03T19:08:56.341Z,12.40
2019-05-03T19:12:04.826Z,12.20
2019-05-03T19:14:35.159Z,12.20
2019-05-03T19:17:24.874Z,12.00
2019-05-03T19:19:55.583Z,11.90
2019-05-03T19:22:25.763Z,11.70
2019-05-03T19:24:55.812Z,11.70
2019-05-03T19:27:25.864Z,11.80
2019-05-03T19:29:55.931Z,11.90
2019-05-03T19:32:28.309Z,12.00
2019-05-03T19:34:57.959Z,12.00
2019-05-03T19:37:28.288Z,12.00
2019-05-03T19:39:58.321Z,12.10
2019-05-03T19:42:28.410Z,12.10
2019-05-03T19:44:58.547Z,12.10
2019-05-03T19:47:28.595Z,12.00
2019-05-03T19:49:58.699Z,12.10
2019-05-03T19:52:34.364Z,12.10
2019-05-03T19:55:05.183Z,12.00
2019-05-03T19:57:38.759Z,12.00
2019-05-03T20:00:09.530Z,12.00
2019-05-03T20:02:58.591Z,12.00
2019-05-03T20:05:47.760Z,12.00
2019-05-03T20:08:28.248Z,12.00
2019-05-03T20:11:15.372Z,11.90
2019-05-03T20:13:46.588Z,12.00
2019-05-03T20:16:16.607Z,12.00
2019-05-03T20:18:46.670Z,11.90
2019-05-03T20:21:16.786Z,11.90
2019-05-03T20:23:47.158Z,11.90
2019-05-03T20:26:17.410Z,11.80
2019-05-03T20:28:47.457Z,11.90
2019-05-03T20:31:17.551Z,11.80
2019-05-03T20:33:47.656Z,11.80
2019-05-03T20:36:17.719Z,11.80
2019-05-03T20:38:47.758Z,11.80
2019-05-03T20:41:17.921Z,11.80
2019-05-03T20:43:55.802Z,11.80
2019-05-03T20:46:33.904Z,11.90
2019-05-03T20:49:06.460Z,11.90
2019-05-03T20:51:36.682Z,11.80
2019-05-03T20:54:06.759Z,11.90
2019-05-03T20:56:36.799Z,11.90
2019-05-03T20:59:06.820Z,11.90
2019-05-03T21:01:36.909Z,11.80
2019-05-03T21:04:06.959Z,11.70
2019-05-03T21:06:38.066Z,11.70
2019-05-03T21:09:08.566Z,11.70
2019-05-03T21:11:40.214Z,11.60
2019-05-03T21:14:10.226Z,11.60
2019-05-03T21:17:00.386Z,11.60
2019-05-03T21:19:40.711Z,11.60
2019-05-03T21:22:18.014Z,11.60
2019-05-03T21:25:11.997Z,11.60
2019-05-03T21:27:42.051Z,11.50
2019-05-03T21:30:12.333Z,11.50
2019-05-03T21:32:44.316Z,11.50
2019-05-03T21:35:14.816Z,11.40
2019-05-03T21:37:45.458Z,11.40
2019-05-03T21:40:15.714Z,11.50
2019-05-03T21:42:45.751Z,11.50
2019-05-03T21:45:17.464Z,11.50
2019-05-03T21:48:14.472Z,11.40
2019-05-03T21:50:44.805Z,11.40
2019-05-03T21:53:14.958Z,11.30
2019-05-03T21:55:44.995Z,11.30
2019-05-03T21:58:16.551Z,11.30
2019-05-03T22:00:55.414Z,11.30
2019-05-03T22:03:25.634Z,11.30
2019-05-03T22:05:58.016Z,11.20
2019-05-03T22:08:27.601Z,11.20
2019-05-03T22:10:57.670Z,11.10
2019-05-03T22:13:27.702Z,11.10
2019-05-03T22:16:16.746Z,11.00
2019-05-03T22:18:46.846Z,11.00
2019-05-03T22:21:27.637Z,11.00
2019-05-03T22:24:26.051Z,10.90
2019-05-03T22:27:17.100Z,10.90
2019-05-03T22:29:47.149Z,10.80
2019-05-03T22:32:17.162Z,10.80
2019-05-03T22:34:47.295Z,10.70
2019-05-03T22:37:17.344Z,10.70
2019-05-03T22:39:47.886Z,10.70
2019-05-03T22:42:18.897Z,10.60
2019-05-03T22:44:48.927Z,10.50
2019-05-03T22:47:18.970Z,10.50
2019-05-03T22:49:49.079Z,10.40
2019-05-03T22:52:19.119Z,10.40
2019-05-03T22:54:49.211Z,10.50
2019-05-03T22:57:19.316Z,10.40
2019-05-03T22:59:49.345Z,10.30
2019-05-03T23:02:19.350Z,10.30
2019-05-03T23:04:49.607Z,10.30
2019-05-03T23:07:19.657Z,10.40
2019-05-03T23:09:49.770Z,10.30
2019-05-03T23:12:19.863Z,10.30
2019-05-03T23:14:49.902Z,10.30
2019-05-03T23:17:19.914Z,10.30
2019-05-03T23:19:53.538Z,10.20
2019-05-03T23:22:26.489Z,10.10
2019-05-03T23:24:56.551Z,10.10
2019-05-03T23:27:26.602Z,10.10
2019-05-03T23:29:56.718Z,10.10
2019-05-03T23:32:26.820Z,10.10
2019-05-03T23:34:56.874Z,10.10
2019-05-03T23:37:26.998Z,10.10
2019-05-03T23:39:57.102Z,10.10
2019-05-03T23:42:27.162Z,10.10
2019-05-03T23:44:57.193Z,10.10
2019-05-03T23:47:44.853Z,10.10
2019-05-03T23:50:18.299Z,10.10
2019-05-03T23:52:48.312Z,10.10
2019-05-03T23:55:40.009Z,10.10
2019-05-03T23:58:10.019Z,10.10
